Dennison, OH (44621)

4:13 AM EST on December 06, 2016 (GMT -0500)
OHDOT | | Change Station

Elev 879 ft 40.40 °N, 81.33 °W | Updated 38 minutes ago

Clear
Clear
35.0 °F
Feels Like 35.0 °F
N
2.0
Wind Variable Wind from ESE
Gusts 5.0 mph

Today
High -- | Low -- °F
--% Chance of Precip.
Yesterday
High -- | Low -- °F
Precip. -- in
Pressure 29.96 in
Visibility 10.0 miles
Clouds Clear
Dew Point 28.0 °F
Humidity 76%
Rainfall in
Snow Depth Not available.
7:34 AM 4:58 PM
Waxing Crescent, 40% visible
METAR KPHD 060853Z AUTO VRB03KT 10SM CLR 01/M02 A2994 RMK AO2 SLP145 T00111022 58030
Pressure 29.96 in
Visibility 10.0 miles
Clouds Clear
Dew Point 28.0 °F
Humidity 76%
Rainfall in
Snow Depth Not available.
7:34 AM 4:58 PM
Waxing Crescent, 40% visible
METAR KPHD 060853Z AUTO VRB03KT 10SM CLR 01/M02 A2994 RMK AO2 SLP145 T00111022 58030

10-Day Weather Forecast

Almanac

Astronomy

Dec. 06, 2016 Rise Set
Actual Time
Civil Twilight
Nautical Twilight
Astronomical Twilight
Moon
Length of Visible Light
Length of Day
Tomorrow will be .
, % of the Moon is Illuminated

Today's Extremes

State Highs State Lows

Community

WunderPhotos

Upload Photos

1,955,935 photos uploaded!

WunderBlog® & News

Nearby

Air Quality

  Air Quality AQ Index Pollutant
Not available.

Snow Depth

Station Depth Elevation

Earthquake Activity

City Distance Mag. Time & Date
Minimum magnitude displayed is 2.5.

Coastal Water Temperatures

Place Temperature

Stations

Nearby Weather Stations

Station Location Temp. Windchill Dew Point Humidity Wind Precip. Elev Updated Type
                   

Watches & Warnings

There are currently no watches in effect.